Time;durP1;ratioP1;P1;durP2;ratioP2;P2;SDS_P1;SDS_P2;PMS_P1;PMS_P2;Temp;Humidity;BMP_temperature;BMP_pressure;BME280_temperature;BME280_humidity;BME280_pressure;Samples;Min_cycle;Max_cycle;Signal;HPM_P1;HPM_P2
2023/03/22 00:00:35;;;;;;;5.45;3.15;;;;;;;18.25;53.90;99429.09;5095454;28;20070;-62
2023/03/22 00:03:05;;;;;;;4.88;3.10;;;;;;;18.27;53.42;99421.09;5095458;28;20455;-62
2023/03/22 00:05:31;;;;;;;6.15;3.20;;;;;;;18.25;53.50;99429.09;5095418;28;20559;-61
2023/03/22 00:07:57;;;;;;;4.28;2.53;;;;;;;18.25;53.60;99418.53;5095344;28;20032;-61
2023/03/22 00:10:27;;;;;;;4.82;3.00;;;;;;;18.23;53.45;99419.53;5095285;28;20034;-61
2023/03/22 00:12:53;;;;;;;4.82;2.90;;;;;;;18.23;53.66;99415.13;5094908;28;20028;-62
2023/03/22 00:15:19;;;;;;;5.30;3.00;;;;;;;18.23;53.57;99417.78;5095166;28;20024;-60
2023/03/22 00:17:44;;;;;;;5.50;3.00;;;;;;;18.20;53.27;99415.25;5095154;28;20486;-62
2023/03/22 00:20:11;;;;;;;5.05;3.10;;;;;;;18.20;53.50;99412.63;5095035;28;20500;-61
2023/03/22 00:22:37;;;;;;;5.78;3.70;;;;;;;18.18;53.34;99409.22;5094795;28;20021;-63
2023/03/22 00:25:04;;;;;;;5.03;3.28;;;;;;;18.17;53.60;99399.59;5094960;28;20085;-61
2023/03/22 00:27:29;;;;;;;5.13;3.00;;;;;;;18.17;53.38;99410.16;5094402;28;20028;-61
2023/03/22 00:29:55;;;;;;;5.28;3.08;;;;;;;18.16;53.60;99413.69;5093890;28;20532;-63
2023/03/22 00:32:20;;;;;;;5.25;3.53;;;;;;;18.16;53.49;99407.59;5094620;28;20027;-63
2023/03/22 00:34:46;;;;;;;5.05;3.13;;;;;;;18.15;53.67;99412.00;5094735;28;20150;-63
2023/03/22 00:37:11;;;;;;;4.88;3.22;;;;;;;18.12;53.71;99401.59;5094778;28;20450;-63
2023/03/22 00:39:37;;;;;;;5.35;3.50;;;;;;;18.11;53.29;99402.50;5093477;28;20099;-61
2023/03/22 00:42:04;;;;;;;6.18;3.20;;;;;;;18.11;53.34;99410.44;5094438;28;20034;-61
2023/03/22 00:44:30;;;;;;;4.90;3.10;;;;;;;18.10;53.61;99403.44;5094417;28;20035;-61
2023/03/22 00:46:55;;;;;;;4.82;3.00;;;;;;;18.10;53.36;99404.31;5094626;28;20024;-61
2023/03/22 00:49:20;;;;;;;5.30;3.20;;;;;;;18.08;53.22;99389.47;5094515;28;20032;-61
2023/03/22 00:51:46;;;;;;;5.88;3.63;;;;;;;18.09;53.19;99385.91;5094133;28;20048;-64
2023/03/22 00:54:11;;;;;;;6.85;3.40;;;;;;;18.07;53.31;99374.56;5094466;28;20065;-63
2023/03/22 00:56:37;;;;;;;5.97;3.60;;;;;;;18.06;53.32;99372.88;5093747;28;20095;-63
2023/03/22 00:59:03;;;;;;;5.63;3.08;;;;;;;18.08;53.46;99368.34;5094148;28;20066;-63
2023/03/22 01:01:29;;;;;;;6.25;3.70;;;;;;;18.04;53.04;99361.47;5094151;28;20020;-63
2023/03/22 01:03:55;;;;;;;5.28;3.45;;;;;;;18.02;53.33;99344.88;5092693;28;20028;-62
2023/03/22 01:06:21;;;;;;;4.93;3.22;;;;;;;18.03;53.05;99349.22;5093976;28;20372;-63
2023/03/22 01:08:49;;;;;;;5.65;3.80;;;;;;;18.02;53.31;99339.59;5093860;28;20039;-63
2023/03/22 01:11:15;;;;;;;5.97;3.47;;;;;;;18.01;53.37;99345.81;5093761;28;20032;-63
2023/03/22 01:13:41;;;;;;;6.30;3.42;;;;;;;17.97;53.04;99335.38;5094167;28;20111;-64
2023/03/22 01:16:07;;;;;;;5.70;3.80;;;;;;;17.97;53.09;99340.66;5094022;28;20028;-63
2023/03/22 01:18:34;;;;;;;5.97;3.33;;;;;;;17.97;53.11;99330.09;5093843;28;20038;-63
2023/03/22 01:21:00;;;;;;;5.82;3.13;;;;;;;17.96;52.93;99325.75;5093964;28;20055;-63
2023/03/22 01:23:25;;;;;;;5.95;3.63;;;;;;;17.94;53.47;99330.28;5093774;28;20055;-63
2023/03/22 01:25:51;;;;;;;5.35;3.50;;;;;;;17.96;53.46;99322.25;5093347;28;20020;-64
2023/03/22 01:28:16;;;;;;;5.28;3.50;;;;;;;17.94;53.31;99319.72;5093704;28;20426;-63
2023/03/22 01:30:41;;;;;;;6.25;3.65;;;;;;;17.94;53.26;99319.72;5093737;28;20034;-63
2023/03/22 01:33:07;;;;;;;5.32;3.10;;;;;;;17.92;53.32;99316.28;5093801;28;20016;-63
2023/03/22 01:35:34;;;;;;;4.65;3.45;;;;;;;17.91;53.43;99314.56;5093653;28;20450;-63
2023/03/22 01:38:00;;;;;;;5.72;4.03;;;;;;;17.90;53.30;99312.88;5093561;28;20024;-63
2023/03/22 01:40:26;;;;;;;6.07;3.50;;;;;;;17.89;53.43;99305.03;5093120;28;20066;-63
2023/03/22 01:42:53;;;;;;;6.47;4.00;;;;;;;17.88;53.10;99304.19;5093535;28;20020;-61
2023/03/22 01:45:39;;;;;;;4.95;3.20;;;;;;;17.86;53.34;99300.75;5093415;28;20537;-63
2023/03/22 01:48:16;;;;;;;7.13;3.85;;;;;;;17.87;53.27;99296.34;5092786;28;20055;-63
2023/03/22 01:50:50;;;;;;;6.10;3.53;;;;;;;17.83;53.03;99296.47;5092915;28;20040;-64
2023/03/22 01:53:17;;;;;;;5.32;3.42;;;;;;;17.83;53.31;99285.09;5093157;28;20035;-63
2023/03/22 01:55:45;;;;;;;5.57;3.47;;;;;;;17.82;53.35;99278.09;5092686;28;20511;-63
2023/03/22 01:58:14;;;;;;;5.45;3.13;;;;;;;17.81;53.32;99281.66;5093080;28;20024;-63
2023/03/22 02:00:39;;;;;;;7.13;4.18;;;;;;;17.80;53.12;99279.94;5093125;28;20024;-64
2023/03/22 02:03:06;;;;;;;5.60;3.65;;;;;;;17.81;53.49;99279.00;5093165;28;20024;-63
2023/03/22 02:05:33;;;;;;;6.28;3.78;;;;;;;17.80;53.44;99275.53;5093061;28;20024;-63
2023/03/22 02:07:59;;;;;;;6.45;4.10;;;;;;;17.80;53.47;99269.38;5092640;28;20066;-63
2023/03/22 02:10:26;;;;;;;5.88;3.45;;;;;;;17.79;53.34;99273.81;5093004;28;20126;-63
2023/03/22 02:13:18;;;;;;;4.75;3.30;;;;;;;17.78;53.27;99271.25;5092898;28;20020;-64
2023/03/22 02:16:06;;;;;;;5.40;3.55;;;;;;;17.77;53.39;99269.56;5050126;28;20555;-64
2023/03/22 02:19:16;;;;;;;5.63;3.40;;;;;;;17.75;53.33;99279.31;5050280;28;20040;-63
2023/03/22 02:21:44;;;;;;;4.93;3.35;;;;;;;17.73;53.50;99268.00;5010461;28;20442;-63
2023/03/22 02:24:28;;;;;;;6.13;3.67;;;;;;;17.73;53.25;99263.59;5010346;28;20069;-63
2023/03/22 02:27:12;;;;;;;5.57;3.17;;;;;;;17.74;53.27;99264.41;5010495;28;20049;-63
2023/03/22 02:29:52;;;;;;;5.97;3.42;;;;;;;17.72;53.22;99256.56;5010445;28;20025;-63
2023/03/22 02:32:39;;;;;;;5.45;3.30;;;;;;;17.71;53.38;99261.00;5010398;28;20074;-63
2023/03/22 02:35:34;;;;;;;5.50;3.40;;;;;;;17.69;53.25;99251.47;5010362;28;20057;-63
2023/03/22 02:38:21;;;;;;;6.20;3.70;;;;;;;17.69;53.35;99254.09;5009786;28;20123;-63
2023/03/22 02:40:53;;;;;;;5.50;3.40;;;;;;;17.70;53.21;99259.31;5010289;28;20034;-63
2023/03/22 02:43:37;;;;;;;5.28;3.55;;;;;;;17.65;53.37;99256.03;5010422;28;20084;-63
2023/03/22 02:46:23;;;;;;;5.53;3.47;;;;;;;17.65;53.10;99263.97;5010113;28;20120;-63
2023/03/22 02:48:56;;;;;;;4.85;3.00;;;;;;;17.64;53.05;99253.47;5010126;28;20033;-63
2023/03/22 02:51:33;;;;;;;4.93;3.28;;;;;;;17.64;53.11;99256.97;5010022;28;20042;-63
2023/03/22 02:54:11;;;;;;;5.80;3.80;;;;;;;17.64;53.21;99250.84;5049158;28;20090;-63
2023/03/22 02:56:45;;;;;;;6.45;3.90;;;;;;;17.62;53.21;99250.91;5049795;28;20033;-63
2023/03/22 02:59:12;;;;;;;6.00;3.60;;;;;;;17.58;53.02;99244.94;5082371;28;20078;-63
2023/03/22 03:01:59;;;;;;;5.95;3.60;;;;;;;17.60;52.95;99244.88;5091927;28;20035;-64
2023/03/22 03:04:32;;;;;;;6.53;3.63;;;;;;;17.57;53.14;99237.97;5091900;28;20035;-64
2023/03/22 03:07:03;;;;;;;5.70;3.58;;;;;;;17.58;53.23;99238.81;5090440;28;20635;-63
2023/03/22 03:09:29;;;;;;;5.85;3.85;;;;;;;17.58;52.98;99249.38;5092234;28;20036;-63
2023/03/22 03:11:55;;;;;;;7.22;3.63;;;;;;;17.56;52.89;99251.22;5091993;28;20016;-63
2023/03/22 03:14:26;;;;;;;6.63;3.67;;;;;;;17.55;53.24;99249.50;5092186;28;20483;-63
2023/03/22 03:17:19;;;;;;;5.40;3.47;;;;;;;17.54;52.98;99255.72;5092063;28;20032;-64
2023/03/22 03:19:57;;;;;;;5.03;3.15;;;;;;;17.51;53.06;99243.53;5091875;28;20405;-63
2023/03/22 03:22:35;;;;;;;5.15;3.40;;;;;;;17.50;53.16;99243.63;5091710;28;20062;-61
2023/03/22 03:25:25;;;;;;;5.53;3.58;;;;;;;17.49;53.05;99241.91;5092044;28;20032;-63
2023/03/22 03:28:02;;;;;;;6.13;3.63;;;;;;;17.47;52.94;99241.16;5091735;28;20067;-63
2023/03/22 03:30:37;;;;;;;6.03;3.65;;;;;;;17.47;52.96;99246.41;5092132;28;20028;-63
2023/03/22 03:33:10;;;;;;;6.70;3.70;;;;;;;17.48;53.05;99237.56;5091971;28;20020;-63
2023/03/22 03:35:43;;;;;;;5.97;3.45;;;;;;;17.44;53.22;99234.22;5091499;28;20085;-63
2023/03/22 03:38:17;;;;;;;5.43;3.90;;;;;;;17.44;52.86;99234.22;5091856;28;20545;-63
2023/03/22 03:40:58;;;;;;;4.97;3.13;;;;;;;17.42;52.98;99229.03;5091725;28;20525;-63
2023/03/22 03:43:24;;;;;;;5.15;3.20;;;;;;;17.42;53.18;99234.31;5091831;28;20086;-63
2023/03/22 03:45:51;;;;;;;5.20;3.67;;;;;;;17.42;52.87;99218.47;5091811;28;20031;-63
2023/03/22 03:48:28;;;;;;;5.80;3.45;;;;;;;17.42;52.78;99214.97;5091944;28;20032;-63
2023/03/22 03:50:56;;;;;;;6.18;3.58;;;;;;;17.41;52.69;99211.50;5091470;28;20389;-63
2023/03/22 03:53:21;;;;;;;5.18;3.75;;;;;;;17.40;52.61;99212.44;5091745;28;20028;-63
2023/03/22 03:55:47;;;;;;;4.80;3.22;;;;;;;17.39;52.69;99213.34;5091945;28;20026;-63
2023/03/22 03:58:14;;;;;;;5.25;3.28;;;;;;;17.37;52.50;99220.47;5091930;28;20028;-63
2023/03/22 04:00:40;;;;;;;7.38;3.88;;;;;;;17.38;52.50;99221.34;5091849;28;20046;-63
2023/03/22 04:03:06;;;;;;;5.25;3.60;;;;;;;17.35;52.83;99219.72;5091875;28;20103;-63
2023/03/22 04:05:32;;;;;;;6.35;3.90;;;;;;;17.33;53.09;99218.09;5093794;28;20020;-63
2023/03/22 04:07:57;;;;;;;5.85;3.55;;;;;;;17.33;52.93;99218.91;5095452;28;20054;-63
2023/03/22 04:10:23;;;;;;;5.85;3.17;;;;;;;17.33;52.81;99221.56;5095518;28;20476;-63
2023/03/22 04:12:48;;;;;;;5.35;3.50;;;;;;;17.33;52.85;99229.47;5095347;28;20028;-63
2023/03/22 04:15:14;;;;;;;5.47;3.38;;;;;;;17.32;52.67;99222.50;5095450;28;20031;-63
2023/03/22 04:17:40;;;;;;;5.18;3.20;;;;;;;17.31;52.89;99220.78;5095382;28;20024;-65
2023/03/22 04:20:10;;;;;;;5.05;3.28;;;;;;;17.31;53.12;99226.06;5094959;28;20024;-62
2023/03/22 04:22:37;;;;;;;4.45;2.70;;;;;;;17.32;52.77;99238.31;5094992;28;20400;-65
2023/03/22 04:25:10;;;;;;;5.63;3.60;;;;;;;17.30;53.07;99230.47;5094991;28;20028;-63
2023/03/22 04:27:38;;;;;;;5.43;3.42;;;;;;;17.30;52.68;99240.19;5095145;28;20082;-63
2023/03/22 04:30:05;;;;;;;5.47;3.65;;;;;;;17.28;53.08;99242.03;5095060;28;20085;-62
2023/03/22 04:32:30;;;;;;;6.15;3.40;;;;;;;17.26;52.81;99233.34;5094691;28;20535;-63
2023/03/22 04:34:56;;;;;;;5.28;3.17;;;;;;;17.28;52.70;99239.38;5093272;28;20115;-63
2023/03/22 04:37:23;;;;;;;4.72;3.17;;;;;;;17.25;53.00;99236.91;5094875;28;20119;-63
2023/03/22 04:39:48;;;;;;;4.65;3.13;;;;;;;17.25;52.89;99236.91;5094722;28;20028;-64
2023/03/22 04:42:14;;;;;;;6.18;3.40;;;;;;;17.25;52.80;99226.38;5094893;28;20035;-64
2023/03/22 04:44:40;;;;;;;5.90;3.40;;;;;;;17.26;53.13;99228.06;5094574;28;20507;-63
2023/03/22 04:47:05;;;;;;;5.05;3.20;;;;;;;17.24;52.82;99222.03;5094579;28;20035;-64
2023/03/22 04:49:31;;;;;;;5.05;3.20;;;;;;;17.24;52.77;99224.66;5094376;28;20032;-63
2023/03/22 04:51:56;;;;;;;5.35;3.08;;;;;;;17.24;52.72;99227.31;5094578;28;20040;-63
2023/03/22 04:54:22;;;;;;;4.57;3.22;;;;;;;17.22;52.67;99231.78;5094611;28;20027;-63
2023/03/22 04:56:48;;;;;;;5.50;3.08;;;;;;;17.21;52.88;99230.06;5094536;28;20031;-63
2023/03/22 04:59:16;;;;;;;4.55;3.25;;;;;;;17.21;52.76;99232.72;5094402;28;20387;-63
2023/03/22 05:01:42;;;;;;;5.00;2.97;;;;;;;17.20;52.93;99229.25;5094505;28;20020;-63
2023/03/22 05:04:07;;;;;;;5.50;3.47;;;;;;;17.20;52.88;99228.38;5094153;28;20020;-62
2023/03/22 05:06:33;;;;;;;4.80;3.22;;;;;;;17.19;52.81;99232.78;5094255;28;20111;-63
2023/03/22 05:09:00;;;;;;;5.45;3.10;;;;;;;17.18;52.95;99231.94;5094036;28;20067;-63
2023/03/22 05:11:26;;;;;;;5.40;3.38;;;;;;;17.17;52.96;99227.59;5094313;28;20161;-63
2023/03/22 05:13:56;;;;;;;5.18;3.00;;;;;;;17.16;53.03;99220.59;5094077;28;20028;-63
2023/03/22 05:16:23;;;;;;;5.10;3.30;;;;;;;17.18;53.13;99225.81;5093770;28;20407;-63
2023/03/22 05:18:53;;;;;;;5.22;3.33;;;;;;;17.19;53.16;99222.22;5093799;28;20048;-62
2023/03/22 05:21:20;;;;;;;4.75;2.70;;;;;;;17.20;52.72;99217.81;5093858;28;20027;-64
2023/03/22 05:23:48;;;;;;;4.97;3.30;;;;;;;17.21;52.74;99224.81;5094081;28;20031;-63
2023/03/22 05:26:14;;;;;;;4.93;2.90;;;;;;;17.17;52.97;99224.97;5093787;28;20028;-62
2023/03/22 05:28:41;;;;;;;4.88;2.85;;;;;;;17.15;52.75;99226.81;5093828;28;20115;-63
2023/03/22 05:31:08;;;;;;;5.35;2.90;;;;;;;17.15;52.92;99220.69;5093474;28;20054;-62
2023/03/22 05:33:33;;;;;;;5.85;2.95;;;;;;;17.15;52.75;99215.44;5093856;28;20035;-63
2023/03/22 05:36:00;;;;;;;4.47;3.00;;;;;;;17.12;52.95;99202.38;5093599;28;20515;-62
2023/03/22 05:38:25;;;;;;;6.13;3.17;;;;;;;17.10;52.94;99202.44;5093785;28;20077;-63
2023/03/22 05:40:51;;;;;;;4.15;2.78;;;;;;;17.08;52.60;99190.25;5093637;28;20063;-63
2023/03/22 05:43:16;;;;;;;4.40;2.80;;;;;;;17.06;52.79;99189.50;5093540;28;20445;-64
2023/03/22 05:45:42;;;;;;;4.22;2.88;;;;;;;17.03;52.71;99196.63;5091911;28;20024;-63
2023/03/22 05:48:07;;;;;;;5.68;3.17;;;;;;;17.01;52.93;99190.53;5093640;28;20032;-63
2023/03/22 05:50:34;;;;;;;4.15;2.88;;;;;;;17.00;53.08;99198.53;5093296;28;20036;-63
2023/03/22 05:52:59;;;;;;;4.07;2.70;;;;;;;17.00;53.02;99198.53;5093326;28;20079;-63
2023/03/22 05:55:25;;;;;;;4.70;2.92;;;;;;;16.99;52.66;99194.16;5093459;28;20531;-63
2023/03/22 05:57:52;;;;;;;4.60;3.00;;;;;;;16.99;52.76;99199.44;5093271;28;20369;-63
2023/03/22 06:00:19;;;;;;;5.10;3.00;;;;;;;16.97;52.91;99196.91;5092957;28;20472;-63
2023/03/22 06:02:46;;;;;;;5.55;3.33;;;;;;;16.96;52.67;99205.75;5093323;28;20028;-64
2023/03/22 06:05:14;;;;;;;4.78;2.80;;;;;;;16.96;52.82;99191.69;5093039;28;20024;-63
2023/03/22 06:07:40;;;;;;;5.55;2.90;;;;;;;16.94;52.97;99193.56;5091719;28;20036;-64
2023/03/22 06:10:07;;;;;;;5.22;3.20;;;;;;;16.92;52.94;99196.25;5093076;28;20369;-63
2023/03/22 06:12:33;;;;;;;5.32;2.92;;;;;;;16.92;52.86;99207.66;5092847;28;20111;-63
2023/03/22 06:14:59;;;;;;;4.70;2.85;;;;;;;16.90;53.08;99206.88;5092301;28;20107;-64
2023/03/22 06:17:25;;;;;;;5.07;3.15;;;;;;;16.89;52.83;99207.81;5092876;28;20016;-63
2023/03/22 06:19:51;;;;;;;4.07;2.90;;;;;;;16.87;52.82;99209.69;5092864;28;20035;-63
2023/03/22 06:22:17;;;;;;;5.30;2.85;;;;;;;16.89;52.82;99209.56;5092814;28;20020;-63
2023/03/22 06:24:42;;;;;;;5.53;3.38;;;;;;;16.90;53.13;99212.16;5092838;28;20400;-63
2023/03/22 06:27:08;;;;;;;4.93;3.45;;;;;;;16.89;52.94;99223.63;5091944;28;20024;-63
2023/03/22 06:29:34;;;;;;;5.43;3.00;;;;;;;16.90;52.71;99227.97;5092294;28;20024;-63
2023/03/22 06:32:00;;;;;;;5.30;3.15;;;;;;;16.89;52.94;99226.25;5091211;28;20032;-64
2023/03/22 06:34:26;;;;;;;5.88;3.28;;;;;;;16.94;52.88;99227.81;5092431;28;20396;-63
2023/03/22 06:36:54;;;;;;;4.40;2.63;;;;;;;16.96;53.03;99226.81;5092237;28;20024;-62
2023/03/22 06:39:20;;;;;;;4.63;3.03;;;;;;;16.95;53.04;99224.25;5092684;28;20415;-64
2023/03/22 06:41:46;;;;;;;4.80;3.10;;;;;;;16.95;52.88;99226.91;5092185;28;20021;-64
2023/03/22 06:44:11;;;;;;;4.70;3.00;;;;;;;16.96;53.05;99225.97;5092274;28;20016;-63
2023/03/22 06:46:37;;;;;;;4.70;2.85;;;;;;;16.97;52.85;99235.56;5092312;28;20568;-63
2023/03/22 06:49:03;;;;;;;4.60;2.78;;;;;;;16.97;52.93;99232.94;5092418;28;20445;-63
2023/03/22 06:51:28;;;;;;;5.05;2.63;;;;;;;16.96;52.64;99237.38;5092238;28;20036;-63
2023/03/22 06:53:53;;;;;;;5.18;2.90;;;;;;;16.99;53.00;99234.56;5092405;28;20464;-62
2023/03/22 06:56:19;;;;;;;4.80;3.15;;;;;;;16.99;52.91;99228.44;5092216;28;20038;-63
2023/03/22 06:58:44;;;;;;;5.47;3.40;;;;;;;16.99;52.97;99231.06;5091879;28;20031;-63
2023/03/22 07:01:10;;;;;;;4.90;2.70;;;;;;;16.96;52.72;99226.81;5091915;28;20024;-63
2023/03/22 07:03:35;;;;;;;4.40;2.60;;;;;;;16.95;53.08;99229.53;5092319;28;20053;-64
2023/03/22 07:06:09;;;;;;;4.88;2.92;;;;;;;16.94;53.15;99222.56;5092165;28;20028;-64
2023/03/22 07:08:36;;;;;;;4.45;3.10;;;;;;;16.96;53.08;99228.59;5092120;28;20055;-63
2023/03/22 07:11:02;;;;;;;4.90;2.90;;;;;;;16.95;52.90;99232.16;5090955;28;20492;-63
2023/03/22 07:13:28;;;;;;;4.45;2.83;;;;;;;16.91;53.21;99224.38;5091913;28;20024;-63
2023/03/22 07:15:55;;;;;;;5.07;3.25;;;;;;;16.90;53.31;99233.22;5092125;28;20094;-63
2023/03/22 07:18:20;;;;;;;6.15;3.28;;;;;;;16.91;53.27;99234.94;5092148;28;20051;-63
2023/03/22 07:20:46;;;;;;;4.55;2.83;;;;;;;16.89;53.32;99234.16;5092077;28;20056;-62
2023/03/22 07:23:11;;;;;;;4.82;3.15;;;;;;;16.90;53.07;99233.22;5091993;28;20062;-63
2023/03/22 07:25:37;;;;;;;5.15;2.90;;;;;;;16.91;53.17;99242.00;5091992;28;20067;-62
2023/03/22 07:28:02;;;;;;;4.95;3.03;;;;;;;16.91;53.16;99239.38;5091558;28;20020;-63
2023/03/22 07:30:28;;;;;;;5.45;2.90;;;;;;;16.90;53.39;99230.59;5091857;28;20043;-63
2023/03/22 07:32:53;;;;;;;6.47;3.28;;;;;;;16.92;53.21;99234.00;5091861;28;20026;-63
2023/03/22 07:35:19;;;;;;;5.13;3.28;;;;;;;16.91;53.06;99234.09;5091735;28;20021;-63
2023/03/22 07:37:44;;;;;;;5.15;3.08;;;;;;;16.90;53.11;99227.97;5091711;28;20024;-63
2023/03/22 07:40:11;;;;;;;5.93;2.75;;;;;;;16.94;53.29;99233.94;5095626;28;20021;-63
2023/03/22 07:42:36;;;;;;;4.43;2.88;;;;;;;16.95;52.99;99234.81;5095417;28;20035;-64
2023/03/22 07:45:02;;;;;;;4.93;3.15;;;;;;;16.98;52.96;99237.28;5095682;28;20384;-63
2023/03/22 07:47:28;;;;;;;5.10;3.17;;;;;;;16.98;53.08;99232.88;5095826;28;20085;-63
2023/03/22 07:49:53;;;;;;;5.38;3.00;;;;;;;16.99;52.79;99231.06;5095807;28;20648;-63
2023/03/22 07:52:19;;;;;;;4.97;3.47;;;;;;;16.98;52.82;99232.00;5095256;28;20037;-64
2023/03/22 07:54:44;;;;;;;4.95;3.17;;;;;;;16.99;52.88;99231.06;5095547;28;20039;-63
2023/03/22 07:57:10;;;;;;;5.72;2.88;;;;;;;17.02;52.85;99231.84;5095094;28;20036;-63
2023/03/22 07:59:35;;;;;;;4.50;3.08;;;;;;;17.03;52.88;99232.69;5095604;28;20024;-63
2023/03/22 08:02:01;;;;;;;5.20;3.03;;;;;;;17.03;52.60;99237.94;5095639;28;20533;-63
2023/03/22 08:04:26;;;;;;;4.80;2.80;;;;;;;17.05;52.66;99238.75;5095576;28;20119;-63
2023/03/22 08:06:57;;;;;;;5.20;3.13;;;;;;;17.08;52.98;99250.91;5095493;28;20028;-63
2023/03/22 08:09:23;;;;;;;4.82;2.92;;;;;;;17.09;52.72;99248.19;5095274;28;20103;-63
2023/03/22 08:11:49;;;;;;;5.80;3.63;;;;;;;17.10;52.45;99249.91;5095086;28;20044;-63
2023/03/22 08:14:14;;;;;;;5.85;3.30;;;;;;;17.09;52.55;99248.19;5095416;28;20058;-64
2023/03/22 08:16:40;;;;;;;5.05;2.85;;;;;;;17.11;52.78;99243.72;5095364;28;20028;-63
2023/03/22 08:19:05;;;;;;;3.92;2.60;;;;;;;17.14;52.66;99243.56;5095282;28;20044;-63
2023/03/22 08:21:31;;;;;;;5.05;2.90;;;;;;;17.15;52.65;99242.63;5095375;28;20019;-63
2023/03/22 08:23:56;;;;;;;4.93;3.05;;;;;;;17.16;52.47;99244.31;5095057;28;20028;-63
2023/03/22 08:26:22;;;;;;;5.00;3.00;;;;;;;17.15;52.85;99255.81;5094731;28;20020;-63
2023/03/22 08:28:47;;;;;;;5.13;3.05;;;;;;;17.15;52.65;99247.91;5095064;28;20035;-63
2023/03/22 08:31:15;;;;;;;4.65;3.00;;;;;;;17.17;52.49;99235.50;5094884;28;20024;-63
2023/03/22 08:33:42;;;;;;;6.20;2.80;;;;;;;17.18;52.40;99237.22;5094776;28;20102;-62
2023/03/22 08:36:11;;;;;;;5.57;3.10;;;;;;;17.21;52.79;99240.63;5094905;28;20118;-63
2023/03/22 08:38:37;;;;;;;5.28;2.97;;;;;;;17.22;52.74;99237.06;5094815;28;20479;-63
2023/03/22 08:41:02;;;;;;;4.70;3.00;;;;;;;17.23;52.49;99233.50;5094451;28;20061;-63
2023/03/22 08:43:28;;;;;;;5.43;3.38;;;;;;;17.27;52.68;99229.78;5094725;28;20030;-63
2023/03/22 08:45:53;;;;;;;5.78;3.15;;;;;;;17.27;52.39;99221.88;5094777;28;20483;-63
2023/03/22 08:48:19;;;;;;;5.88;3.03;;;;;;;17.31;52.54;99226.94;5094389;28;20107;-62
2023/03/22 08:50:44;;;;;;;6.95;3.50;;;;;;;17.33;52.48;99229.47;5093513;28;20050;-63
2023/03/22 08:53:10;;;;;;;4.80;2.97;;;;;;;17.32;52.62;99222.50;5094701;28;20028;-63
2023/03/22 08:55:36;;;;;;;5.57;3.33;;;;;;;17.32;52.66;99217.22;5094240;28;20430;-63
2023/03/22 08:58:03;;;;;;;5.13;3.28;;;;;;;17.33;52.32;99221.56;5094381;28;20024;-62
2023/03/22 09:00:29;;;;;;;6.28;3.08;;;;;;;17.36;52.18;99221.41;5094451;28;20399;-63
2023/03/22 09:02:54;;;;;;;5.35;3.20;;;;;;;17.37;52.28;99220.47;5094450;28;20110;-63
2023/03/22 09:05:20;;;;;;;4.70;2.90;;;;;;;17.37;52.47;99216.97;5094362;28;20067;-63
2023/03/22 09:07:45;;;;;;;5.65;3.35;;;;;;;17.36;52.22;99217.91;5094175;28;20028;-63
2023/03/22 09:10:11;;;;;;;5.05;3.05;;;;;;;17.39;52.27;99213.34;5092654;28;20024;-63
2023/03/22 09:12:37;;;;;;;5.40;3.25;;;;;;;17.39;52.61;99213.34;5092789;28;20020;-63
2023/03/22 09:15:03;;;;;;;4.43;2.70;;;;;;;17.40;52.40;99209.78;5094127;28;20035;-63
2023/03/22 09:17:29;;;;;;;5.53;2.90;;;;;;;17.42;52.49;99215.84;5094075;28;20039;-63
2023/03/22 09:19:54;;;;;;;4.55;2.78;;;;;;;17.44;52.27;99216.59;5094093;28;20027;-63
2023/03/22 09:22:20;;;;;;;5.50;3.13;;;;;;;17.42;52.23;99218.47;5093847;28;20027;-63
2023/03/22 09:24:45;;;;;;;4.80;3.05;;;;;;;17.44;52.25;99221.88;5093747;28;20047;-63
2023/03/22 09:27:10;;;;;;;5.18;3.13;;;;;;;17.45;52.40;99223.59;5093574;28;20031;-63
2023/03/22 09:29:36;;;;;;;5.70;3.30;;;;;;;17.48;52.25;99225.22;5093883;28;20505;-63
2023/03/22 09:32:01;;;;;;;5.65;2.72;;;;;;;17.49;52.35;99218.16;5093631;28;20020;-62
2023/03/22 09:34:27;;;;;;;5.28;3.20;;;;;;;17.52;52.30;99231.19;5093664;28;20028;-63
2023/03/22 09:36:52;;;;;;;4.78;3.00;;;;;;;17.53;52.01;99230.28;5093761;28;20016;-63
2023/03/22 09:39:18;;;;;;;4.80;2.75;;;;;;;17.51;52.56;99216.28;5092080;28;20024;-63
2023/03/22 09:41:47;;;;;;;5.28;3.20;;;;;;;17.53;52.12;99225.00;5093742;28;20089;-63
2023/03/22 09:44:25;;;;;;;4.75;2.80;;;;;;;17.53;52.47;99225.00;5092227;28;20034;-64
2023/03/22 09:46:54;;;;;;;5.00;2.85;;;;;;;17.54;52.62;99221.44;5093433;28;20028;-64
2023/03/22 09:49:25;;;;;;;4.30;2.88;;;;;;;17.54;52.45;99216.16;5093148;28;20097;-63
2023/03/22 09:51:54;;;;;;;5.90;3.28;;;;;;;17.57;52.13;99210.72;5092859;28;20046;-63
2023/03/22 09:54:33;;;;;;;5.43;3.20;;;;;;;17.58;52.11;99208.00;5093479;28;20113;-63
2023/03/22 09:57:27;;;;;;;4.65;3.13;;;;;;;17.59;52.41;99214.13;5093186;28;20457;-63
2023/03/22 10:00:15;;;;;;;4.32;3.08;;;;;;;17.59;52.23;99206.22;5093117;28;20024;-63
2023/03/22 10:03:18;;;;;;;4.50;2.88;;;;;;;17.62;52.28;99207.84;5093168;28;20040;-64
2023/03/22 10:05:51;;;;;;;6.22;3.30;;;;;;;17.64;52.21;99208.63;5093178;28;20024;-63
2023/03/22 10:08:25;;;;;;;4.20;2.70;;;;;;;17.64;52.26;99211.25;5092684;28;20039;-63
2023/03/22 10:10:51;;;;;;;5.30;2.63;;;;;;;17.64;52.38;99211.25;5093040;28;20032;-64
2023/03/22 10:13:39;;;;;;;5.75;3.00;;;;;;;17.63;52.21;99210.41;5092879;28;20162;-62
2023/03/22 10:16:10;;;;;;;4.32;2.72;;;;;;;17.65;52.32;99212.97;5092991;28;20042;-63
2023/03/22 10:18:42;;;;;;;4.90;2.60;;;;;;;17.66;52.22;99210.25;5092971;28;20107;-63
2023/03/22 10:21:11;;;;;;;5.43;2.67;;;;;;;17.67;52.26;99209.31;5092306;28;20373;-63
2023/03/22 10:23:45;;;;;;;4.90;2.50;;;;;;;17.67;52.38;99201.41;5092962;28;20052;-63
2023/03/22 10:26:21;;;;;;;4.25;2.65;;;;;;;17.68;52.44;99200.47;5092863;28;20047;-63
2023/03/22 10:29:02;;;;;;;4.50;2.67;;;;;;;17.71;52.39;99202.09;5092682;28;20590;-63
2023/03/22 10:31:29;;;;;;;4.05;2.30;;;;;;;17.71;52.16;99202.97;5092743;28;20470;-63
2023/03/22 10:34:04;;;;;;;5.78;2.70;;;;;;;17.73;52.17;99204.66;5092770;28;20028;-63
2023/03/22 10:36:33;;;;;;;5.10;2.97;;;;;;;17.76;52.10;99205.34;5092270;28;20065;-63
2023/03/22 10:39:17;;;;;;;4.82;2.78;;;;;;;17.76;52.20;99207.13;5092530;28;20032;-63
2023/03/22 10:41:43;;;;;;;5.53;2.83;;;;;;;17.78;52.07;99207.91;5092587;28;20028;-64
2023/03/22 10:44:15;;;;;;;4.95;2.95;;;;;;;17.79;52.24;99201.69;5092513;28;20103;-63
2023/03/22 10:46:42;;;;;;;4.03;2.38;;;;;;;17.80;52.06;99206.03;5092232;28;20028;-62
2023/03/22 10:49:16;;;;;;;4.50;2.40;;;;;;;17.81;52.32;99205.97;5092368;28;20115;-63
2023/03/22 10:51:48;;;;;;;4.28;2.42;;;;;;;17.83;52.28;99206.72;5091954;28;20047;-63
2023/03/22 10:54:16;;;;;;;4.13;2.25;;;;;;;17.83;52.13;99206.72;5092491;28;20052;-63
2023/03/22 10:56:41;;;;;;;4.90;2.45;;;;;;;17.84;52.15;99202.31;5092121;28;20022;-63
2023/03/22 10:59:10;;;;;;;3.83;2.13;;;;;;;17.86;52.20;99200.44;5092259;28;20028;-63
2023/03/22 11:01:43;;;;;;;3.55;2.30;;;;;;;17.87;52.28;99204.78;5092380;28;20020;-63
2023/03/22 11:04:12;;;;;;;4.53;2.45;;;;;;;17.89;52.26;99200.31;5092208;28;20019;-62
2023/03/22 11:06:47;;;;;;;3.83;2.20;;;;;;;17.89;52.19;99200.31;5091690;28;20035;-62
2023/03/22 11:09:17;;;;;;;4.07;2.17;;;;;;;17.90;52.26;99195.84;5092048;28;20032;-63
2023/03/22 11:11:50;;;;;;;3.90;2.38;;;;;;;17.91;52.14;99195.78;5092197;28;20103;-63
2023/03/22 11:14:23;;;;;;;4.30;2.33;;;;;;;17.92;51.94;99208.03;5096726;28;20024;-62
2023/03/22 11:16:58;;;;;;;3.83;2.25;;;;;;;17.94;52.06;99193.00;5099100;28;20068;-61
2023/03/22 11:19:26;;;;;;;3.40;2.40;;;;;;;17.94;52.00;99187.72;5098591;28;20113;-61
2023/03/22 11:21:54;;;;;;;3.75;2.40;;;;;;;17.94;52.12;99187.72;5098682;28;20020;-61
2023/03/22 11:24:23;;;;;;;3.50;2.22;;;;;;;17.95;52.10;99189.41;5097567;28;20076;-61
2023/03/22 11:27:23;;;;;;;4.80;2.42;;;;;;;17.98;52.26;99183.97;5098802;28;20472;-61
2023/03/22 11:29:51;;;;;;;3.00;1.67;;;;;;;18.00;52.24;99190.97;5055969;28;20460;-61
2023/03/22 11:32:34;;;;;;;4.20;2.72;;;;;;;18.02;51.92;99183.81;5056150;28;20155;-61
2023/03/22 11:35:14;;;;;;;4.60;2.30;;;;;;;18.01;52.18;99177.66;5055959;28;20082;-61
2023/03/22 11:37:50;;;;;;;2.72;1.85;;;;;;;18.02;52.04;99183.81;5055921;28;20094;-61
2023/03/22 11:40:34;;;;;;;3.30;2.15;;;;;;;18.05;52.17;99178.34;5056299;28;20121;-61
2023/03/22 11:43:08;;;;;;;4.95;2.38;;;;;;;18.06;51.94;99174.84;5055969;28;20777;-62